Terminal Aerodrome Forecast
Issued by NWS

Home | Current Version | Previous Version | Text Only | Print | Product List | Glossary On
Versions: 1 2 3 4 5 6 7 8 9 10 11 12
000
FTUS46 KPDT 031120
TAFALW
TAF
KALW 031120Z 0312/0412 12007KT P6SM SKC
     FM031700 30008KT P6SM SKC
     FM032000 30012KT P6SM SKC
     FM040400 30008KT P6SM SKC=

USA.gov is the U.S. government's official web portal to all federal, state and local government web resources and services.